Time;durP1;ratioP1;P1;durP2;ratioP2;P2;SDS_P1;SDS_P2;PMS_P1;PMS_P2;Temp;Humidity;BMP_temperature;BMP_pressure;BME280_temperature;BME280_humidity;BME280_pressure;Samples;Min_cycle;Max_cycle;Signal;HPM_P1;HPM_P2
2023/12/18 00:00:32;;;;;;;8.70;4.03;;;;;;;19.06;67.19;103225.03;5019445;28;20029;-39
2023/12/18 00:02:57;;;;;;;9.70;4.38;;;;;;;19.05;66.87;103223.34;5010282;28;20287;-38
2023/12/18 00:05:23;;;;;;;12.15;4.78;;;;;;;19.05;66.72;103223.34;4989039;28;20502;-40
2023/12/18 00:07:48;;;;;;;8.65;4.07;;;;;;;19.02;67.07;103221.06;5016684;28;20032;-37
2023/12/18 00:10:14;;;;;;;10.05;4.30;;;;;;;19.00;66.45;103222.38;5009597;28;20186;-38
2023/12/18 00:12:39;;;;;;;9.35;4.00;;;;;;;18.98;66.79;103210.75;5007668;28;20065;-38
2023/12/18 00:15:06;;;;;;;11.25;4.38;;;;;;;18.95;66.35;103217.53;5015295;28;20426;-39
2023/12/18 00:17:32;;;;;;;9.38;4.18;;;;;;;18.93;66.35;103211.44;5012416;28;20093;-39
2023/12/18 00:19:58;;;;;;;11.13;4.07;;;;;;;18.91;66.48;103206.16;5019445;28;20025;-39
2023/12/18 00:22:24;;;;;;;11.23;3.55;;;;;;;18.89;66.40;103204.69;4987828;28;20048;-36
2023/12/18 00:24:49;;;;;;;6.88;3.55;;;;;;;18.86;66.49;103191.38;4986382;28;20037;-36
2023/12/18 00:27:14;;;;;;;9.85;4.28;;;;;;;18.85;66.58;103201.53;5003506;28;20030;-36
2023/12/18 00:29:40;;;;;;;11.70;4.85;;;;;;;18.84;65.97;103199.84;5004717;28;20038;-37
2023/12/18 00:32:06;;;;;;;10.75;3.92;;;;;;;18.82;66.36;103201.16;5009257;28;20064;-36
2023/12/18 00:34:31;;;;;;;9.95;4.43;;;;;;;18.79;65.88;103199.69;5004119;28;20030;-36
2023/12/18 00:36:57;;;;;;;9.20;3.80;;;;;;;18.78;66.45;103203.50;5010429;28;20038;-36
2023/12/18 00:39:22;;;;;;;9.13;4.00;;;;;;;18.76;65.99;103194.63;5006282;28;20539;-36
2023/12/18 00:41:48;;;;;;;11.18;4.53;;;;;;;18.75;65.81;103192.97;5009868;28;20026;-38
2023/12/18 00:44:13;;;;;;;9.07;4.10;;;;;;;18.73;65.98;103187.69;5017103;28;20029;-39
2023/12/18 00:46:39;;;;;;;8.13;4.20;;;;;;;18.71;65.91;103187.09;5003077;28;20092;-39
2023/12/18 00:49:04;;;;;;;10.30;4.10;;;;;;;18.70;65.78;103185.41;5014625;28;20048;-38
2023/12/18 00:51:29;;;;;;;9.45;4.85;;;;;;;18.66;65.55;103186.91;5002905;28;20140;-38
2023/12/18 00:53:55;;;;;;;11.20;4.00;;;;;;;18.65;65.65;103193.50;5006995;28;20038;-36
2023/12/18 00:56:20;;;;;;;8.98;3.83;;;;;;;18.64;65.83;103196.44;5002754;28;20553;-39
2023/12/18 00:58:45;;;;;;;12.35;4.43;;;;;;;18.61;65.81;103178.50;5009725;28;20033;-36
2023/12/18 01:01:11;;;;;;;8.77;3.75;;;;;;;18.61;66.01;103181.25;5004054;28;20029;-36
2023/12/18 01:03:37;;;;;;;11.85;4.28;;;;;;;18.58;65.79;103171.56;5003796;28;20026;-38
2023/12/18 01:06:04;;;;;;;9.05;3.70;;;;;;;18.56;65.71;103175.59;4994484;28;20018;-39
2023/12/18 01:08:29;;;;;;;10.20;4.00;;;;;;;18.55;66.03;103174.78;5004850;28;20033;-39
2023/12/18 01:10:54;;;;;;;9.93;4.60;;;;;;;18.54;65.95;103164.00;5015577;28;20026;-39
2023/12/18 01:13:20;;;;;;;10.13;3.90;;;;;;;18.52;66.08;103163.38;5009145;28;20425;-39
2023/12/18 01:15:45;;;;;;;9.00;4.32;;;;;;;18.52;66.38;103166.13;5003100;28;20077;-37
2023/12/18 01:18:11;;;;;;;9.25;3.78;;;;;;;18.51;66.61;103167.19;5008950;28;20492;-36
2023/12/18 01:20:36;;;;;;;8.57;3.65;;;;;;;18.51;66.60;103176.25;4990452;28;20034;-36
2023/12/18 01:23:01;;;;;;;8.48;3.55;;;;;;;18.50;66.44;103176.50;4998896;28;20341;-36
2023/12/18 01:25:27;;;;;;;7.88;3.45;;;;;;;18.49;66.58;103172.91;4993013;28;20652;-36
2023/12/18 01:27:53;;;;;;;6.55;3.58;;;;;;;18.50;66.53;103171.00;5014722;28;20029;-38
2023/12/18 01:30:18;;;;;;;8.63;3.83;;;;;;;18.49;66.77;103172.91;5002216;28;20114;-39
2023/12/18 01:32:43;;;;;;;9.77;3.95;;;;;;;18.48;66.71;103176.72;5003109;28;20025;-35
2023/12/18 01:35:09;;;;;;;7.05;3.60;;;;;;;18.48;66.70;103170.38;5004721;28;20113;-36
2023/12/18 01:37:34;;;;;;;6.55;3.42;;;;;;;18.48;66.70;103175.88;5014031;28;20029;-38
2023/12/18 01:40:00;;;;;;;11.05;3.70;;;;;;;18.47;67.04;103160.44;4999886;28;20034;-39
2023/12/18 01:42:26;;;;;;;8.27;3.60;;;;;;;18.48;66.91;103156.66;4985002;28;20022;-36
2023/12/18 01:44:51;;;;;;;9.30;3.97;;;;;;;18.48;66.67;103148.41;5014497;28;20587;-38
2023/12/18 01:47:17;;;;;;;7.55;3.58;;;;;;;18.47;66.99;103163.19;5004355;28;20291;-39
2023/12/18 01:49:43;;;;;;;7.38;3.40;;;;;;;18.47;67.03;103166.81;4992891;28;20069;-38
2023/12/18 01:52:08;;;;;;;6.55;3.53;;;;;;;18.47;66.65;103166.81;5006601;28;20526;-38
2023/12/18 01:54:34;;;;;;;8.75;3.80;;;;;;;18.47;66.91;103168.69;4987755;28;20029;-36
2023/12/18 01:57:00;;;;;;;7.28;3.75;;;;;;;18.46;67.01;103175.28;5009397;28;20026;-35
2023/12/18 01:59:25;;;;;;;8.18;3.38;;;;;;;18.47;67.02;103176.94;5011867;28;20385;-37
2023/12/18 02:01:51;;;;;;;5.88;3.47;;;;;;;18.48;66.99;103184.09;5007335;28;20033;-38
2023/12/18 02:04:16;;;;;;;5.85;3.47;;;;;;;18.47;67.08;103190.66;5006122;28;20034;-38
2023/12/18 02:06:43;;;;;;;10.18;3.72;;;;;;;18.44;67.06;103176.34;5003481;28;20029;-35
2023/12/18 02:09:09;;;;;;;9.70;3.90;;;;;;;18.46;66.81;103176.09;5009228;28;20066;-39
2023/12/18 02:11:34;;;;;;;7.78;3.78;;;;;;;18.46;66.90;103170.59;5004699;28;20157;-38
2023/12/18 02:14:00;;;;;;;6.43;3.20;;;;;;;18.47;66.86;103165.94;5012375;28;20562;-38
2023/12/18 02:16:25;;;;;;;7.88;3.95;;;;;;;18.45;66.83;103160.69;5011079;28;20028;-35
2023/12/18 02:18:50;;;;;;;7.47;3.75;;;;;;;18.46;67.06;103159.63;5008195;28;20040;-36
2023/12/18 02:21:20;;;;;;;8.18;4.10;;;;;;;18.46;66.91;103159.63;5004869;28;20112;-36
2023/12/18 02:23:46;;;;;;;5.63;3.38;;;;;;;18.45;66.77;103163.44;5005776;28;20049;-36
2023/12/18 02:26:12;;;;;;;6.43;3.88;;;;;;;18.44;67.02;103159.00;5002687;28;20509;-36
2023/12/18 02:28:37;;;;;;;8.07;3.92;;;;;;;18.45;67.00;103168.91;4985476;28;20029;-38
2023/12/18 02:31:03;;;;;;;6.60;3.80;;;;;;;18.44;67.15;103162.59;4990917;28;20022;-36
2023/12/18 02:33:29;;;;;;;6.57;3.40;;;;;;;18.43;67.25;103160.09;4984814;28;20036;-36
2023/12/18 02:35:56;;;;;;;5.88;3.03;;;;;;;18.44;66.99;103151.63;5008122;28;20490;-36
2023/12/18 02:38:21;;;;;;;7.88;3.10;;;;;;;18.44;66.96;103156.25;5010050;28;20509;-38
2023/12/18 02:40:47;;;;;;;9.25;3.78;;;;;;;18.43;66.99;103149.09;5006588;28;20018;-38
2023/12/18 02:43:12;;;;;;;5.55;3.22;;;;;;;18.43;66.93;103149.94;5011798;28;20057;-39
2023/12/18 02:45:38;;;;;;;7.93;3.72;;;;;;;18.43;67.01;103149.94;5011715;28;20323;-40
2023/12/18 02:48:04;;;;;;;8.18;3.63;;;;;;;18.43;66.92;103155.44;5008189;28;20022;-39
2023/12/18 02:50:29;;;;;;;7.53;4.00;;;;;;;18.43;66.98;103143.63;5004522;28;20088;-39
2023/12/18 02:52:55;;;;;;;8.15;3.72;;;;;;;18.42;67.26;103137.25;4982031;28;20025;-37
2023/12/18 02:55:20;;;;;;;7.40;3.63;;;;;;;18.42;66.80;103145.50;5001426;28;20562;-36
2023/12/18 02:57:46;;;;;;;8.52;3.92;;;;;;;18.41;66.74;103145.72;5006431;28;20037;-39
2023/12/18 03:00:11;;;;;;;6.55;3.67;;;;;;;18.43;66.71;103146.38;5006056;28;20502;-36
2023/12/18 03:02:37;;;;;;;8.80;3.97;;;;;;;18.42;66.72;103144.66;5007315;28;20033;-35
2023/12/18 03:05:03;;;;;;;6.43;3.50;;;;;;;18.40;66.87;103139.38;5010293;28;20029;-35
2023/12/18 03:07:29;;;;;;;7.65;3.58;;;;;;;18.41;66.82;103140.25;5006415;28;20037;-36
2023/12/18 03:09:54;;;;;;;6.38;3.83;;;;;;;18.40;66.89;103144.88;4987069;28;20048;-36
2023/12/18 03:12:20;;;;;;;9.70;4.03;;;;;;;18.42;66.81;103152.91;5003929;28;20112;-36
2023/12/18 03:14:45;;;;;;;10.90;4.15;;;;;;;18.40;66.87;103150.38;5003867;28;20041;-36
2023/12/18 03:17:10;;;;;;;6.72;3.80;;;;;;;18.40;66.84;103147.63;5004258;28;20480;-36
2023/12/18 03:19:36;;;;;;;10.93;3.85;;;;;;;18.41;66.97;103143.81;5006897;28;20459;-36
2023/12/18 03:22:01;;;;;;;6.07;3.50;;;;;;;18.39;66.77;103142.38;5001312;28;20127;-35
2023/12/18 03:24:27;;;;;;;8.75;3.90;;;;;;;18.39;67.08;103132.25;4969875;28;20030;-36
2023/12/18 03:26:52;;;;;;;7.25;3.60;;;;;;;18.39;67.04;103131.38;5002287;28;20489;-36
2023/12/18 03:29:17;;;;;;;7.68;3.85;;;;;;;18.37;67.21;103130.75;5005187;28;20064;-35
2023/12/18 03:31:43;;;;;;;6.57;3.72;;;;;;;18.37;67.11;103128.00;4999942;28;20298;-36
2023/12/18 03:34:08;;;;;;;8.52;3.83;;;;;;;18.37;66.99;103120.63;5006698;28;20651;-36
2023/12/18 03:36:33;;;;;;;6.05;3.60;;;;;;;18.37;67.03;103128.00;5007737;28;20030;-36
2023/12/18 03:38:59;;;;;;;6.07;3.42;;;;;;;18.37;66.93;103111.53;5010253;28;20132;-35
2023/12/18 03:41:24;;;;;;;6.93;3.65;;;;;;;18.37;67.08;103117.88;5007680;28;20470;-38
2023/12/18 03:43:50;;;;;;;6.43;3.67;;;;;;;18.38;66.85;103114.06;5002639;28;20856;-39
2023/12/18 03:46:16;;;;;;;8.38;3.95;;;;;;;18.39;66.68;103117.66;5007219;28;20101;-39
2023/12/18 03:48:41;;;;;;;6.40;3.42;;;;;;;18.39;66.60;103118.50;5006938;28;21331;-36
2023/12/18 03:51:07;;;;;;;6.88;3.97;;;;;;;18.38;66.71;103111.34;5006370;28;20084;-36
2023/12/18 03:53:32;;;;;;;8.77;4.32;;;;;;;18.39;66.44;103117.66;5008285;28;20034;-38
2023/12/18 03:55:57;;;;;;;6.68;3.47;;;;;;;18.38;66.69;103121.47;5009119;28;20160;-39
2023/12/18 03:58:23;;;;;;;8.07;3.83;;;;;;;18.38;66.76;103114.06;5004880;28;20029;-36
2023/12/18 04:00:48;;;;;;;7.32;3.72;;;;;;;18.37;66.65;103117.03;4980515;28;20045;-35
2023/12/18 04:03:13;;;;;;;9.90;3.83;;;;;;;18.36;66.57;103104.38;4993300;28;20034;-35
2023/12/18 04:05:39;;;;;;;6.20;3.63;;;;;;;18.35;66.89;103109.03;5005502;28;20539;-35
2023/12/18 04:08:04;;;;;;;8.23;3.63;;;;;;;18.35;66.80;103113.69;5001486;28;20044;-35
2023/12/18 04:10:30;;;;;;;6.35;3.75;;;;;;;18.35;66.75;103103.53;5007004;28;20029;-35
2023/12/18 04:12:55;;;;;;;9.13;3.60;;;;;;;18.33;66.86;103105.69;5003865;28;20478;-39
2023/12/18 04:15:21;;;;;;;6.75;3.58;;;;;;;18.33;66.65;103102.94;5004444;28;20258;-35
2023/12/18 04:17:46;;;;;;;7.43;3.53;;;;;;;18.33;66.54;103093.84;5011225;28;20092;-38
2023/12/18 04:20:12;;;;;;;7.40;3.53;;;;;;;18.32;66.93;103089.41;4988424;28;20148;-36
2023/12/18 04:22:37;;;;;;;7.70;4.10;;;;;;;18.32;66.66;103097.66;4991859;28;20060;-40
2023/12/18 04:25:03;;;;;;;7.40;3.75;;;;;;;18.31;66.68;103096.81;4994666;28;20029;-39
2023/12/18 04:27:28;;;;;;;6.07;3.50;;;;;;;18.30;66.70;103091.56;4988704;28;20390;-36
2023/12/18 04:29:54;;;;;;;8.27;4.25;;;;;;;18.29;66.36;103098.94;5005734;28;20324;-36
2023/12/18 04:32:19;;;;;;;8.27;3.90;;;;;;;18.30;66.13;103103.38;5005549;28;20395;-39
2023/12/18 04:34:44;;;;;;;7.75;4.25;;;;;;;18.30;66.20;103095.13;4983969;28;20113;-39
2023/12/18 04:37:10;;;;;;;10.40;4.00;;;;;;;18.30;66.31;103106.13;4973670;28;20502;-39
2023/12/18 04:39:36;;;;;;;7.90;4.05;;;;;;;18.30;66.25;103113.53;5006504;28;20030;-36
2023/12/18 04:42:02;;;;;;;10.35;4.20;;;;;;;18.28;66.28;103114.59;5004514;28;20031;-36
2023/12/18 04:44:28;;;;;;;7.68;3.55;;;;;;;18.28;66.25;103110.97;5005072;28;20100;-35
2023/12/18 04:46:54;;;;;;;7.70;3.60;;;;;;;18.25;66.35;103106.78;5010017;28;20478;-36
2023/12/18 04:49:19;;;;;;;6.55;3.42;;;;;;;18.25;66.18;103119.69;5007843;28;20120;-39
2023/12/18 04:51:45;;;;;;;6.80;3.65;;;;;;;18.25;66.56;103116.94;5014901;28;20028;-37
2023/12/18 04:54:11;;;;;;;6.60;3.50;;;;;;;18.24;66.45;103107.00;5007443;28;20040;-39
2023/12/18 04:56:36;;;;;;;6.97;3.30;;;;;;;18.23;66.84;103106.19;4988370;28;20093;-35
2023/12/18 04:59:01;;;;;;;5.95;3.40;;;;;;;18.23;66.85;103105.31;5010845;28;20022;-39
2023/12/18 05:01:28;;;;;;;8.05;3.67;;;;;;;18.21;66.67;103099.22;5004637;28;20478;-38
2023/12/18 05:03:53;;;;;;;7.30;3.33;;;;;;;18.20;66.60;103095.63;5006678;28;20093;-40
2023/12/18 05:06:28;;;;;;;7.25;3.50;;;;;;;18.21;66.69;103089.09;5008356;28;20466;-35
2023/12/18 05:08:54;;;;;;;9.10;3.58;;;;;;;18.21;66.86;103096.47;5008105;28;20437;-37
2023/12/18 05:11:24;;;;;;;7.30;3.35;;;;;;;18.20;66.82;103092.06;5005299;28;20030;-34
2023/12/18 05:13:49;;;;;;;6.13;3.17;;;;;;;18.20;67.07;103092.06;4985896;28;20707;-35
2023/12/18 05:16:16;;;;;;;6.47;3.30;;;;;;;18.23;67.02;103084.22;5018758;28;20021;-39
2023/12/18 05:18:41;;;;;;;6.85;2.97;;;;;;;18.28;66.98;103091.75;5005056;28;20041;-39
2023/12/18 05:21:07;;;;;;;4.72;3.10;;;;;;;18.34;66.92;103090.88;5010712;28;20025;-39
2023/12/18 05:23:32;;;;;;;7.07;3.30;;;;;;;18.42;66.84;103090.59;5009693;28;20054;-35
2023/12/18 05:25:58;;;;;;;5.95;3.20;;;;;;;18.49;66.48;103090.53;4988512;28;20388;-38
2023/12/18 05:28:24;;;;;;;5.75;3.10;;;;;;;18.57;66.56;103092.16;5006659;28;20432;-39
2023/12/18 05:30:49;;;;;;;6.35;3.40;;;;;;;18.64;66.46;103092.94;5002917;28;20067;-36
2023/12/18 05:33:15;;;;;;;5.00;2.97;;;;;;;18.72;66.35;103098.13;5015913;28;20052;-37
2023/12/18 05:35:40;;;;;;;6.75;3.55;;;;;;;18.81;66.28;103101.41;5001818;28;20054;-39
2023/12/18 05:38:08;;;;;;;6.40;3.03;;;;;;;18.91;66.24;103104.50;5000729;28;20030;-38
2023/12/18 05:40:34;;;;;;;8.00;3.35;;;;;;;19.01;66.11;103100.38;5009492;28;20044;-36
2023/12/18 05:43:00;;;;;;;5.85;3.47;;;;;;;19.11;65.82;103100.69;5010833;28;20040;-39
2023/12/18 05:45:25;;;;;;;5.68;3.00;;;;;;;19.22;65.69;103104.56;4985960;28;20022;-38
2023/12/18 05:47:50;;;;;;;6.05;3.03;;;;;;;19.33;65.73;103106.53;5011406;28;20038;-39
2023/12/18 05:50:16;;;;;;;7.85;3.30;;;;;;;19.45;65.48;103108.50;5010281;28;20052;-39
2023/12/18 05:52:41;;;;;;;5.05;3.05;;;;;;;19.52;65.46;103104.59;5005135;28;20029;-39
2023/12/18 05:55:09;;;;;;;7.15;3.38;;;;;;;19.62;65.10;103103.19;5002322;28;20693;-39
2023/12/18 05:57:35;;;;;;;6.25;3.20;;;;;;;19.66;65.28;103108.00;5001439;28;20851;-39
2023/12/18 06:00:00;;;;;;;8.27;3.38;;;;;;;19.71;64.48;103110.06;5012320;28;20025;-39
2023/12/18 06:02:26;;;;;;;7.40;3.25;;;;;;;19.71;64.61;103107.31;5012770;28;21292;-38
2023/12/18 06:04:51;;;;;;;5.95;3.00;;;;;;;19.71;64.46;103105.38;5004759;28;20200;-36
2023/12/18 06:07:16;;;;;;;4.85;2.85;;;;;;;19.71;64.57;103118.31;5004586;28;20040;-38
2023/12/18 06:09:42;;;;;;;6.60;3.13;;;;;;;19.69;64.90;103113.03;5010886;28;20039;-38
2023/12/18 06:12:07;;;;;;;6.78;3.40;;;;;;;19.68;64.56;103116.00;5004043;28;20022;-39
2023/12/18 06:14:33;;;;;;;7.15;3.28;;;;;;;19.67;64.69;103111.59;5008572;28;20041;-39
2023/12/18 06:16:58;;;;;;;5.55;3.05;;;;;;;19.67;64.84;103117.09;5003598;28;20442;-38
2023/12/18 06:19:23;;;;;;;9.63;3.42;;;;;;;19.66;64.61;103116.25;5004317;28;20145;-38
2023/12/18 06:21:49;;;;;;;6.05;3.03;;;;;;;19.64;64.63;103109.31;5005130;28;20128;-38
2023/12/18 06:24:14;;;;;;;5.32;3.00;;;;;;;19.63;64.20;103105.72;4988823;28;20030;-36
2023/12/18 06:26:39;;;;;;;6.80;3.00;;;;;;;19.61;64.55;103104.25;5000977;28;20109;-35
2023/12/18 06:29:05;;;;;;;5.88;2.90;;;;;;;19.59;64.41;103103.66;5005471;28;20095;-36
2023/12/18 06:31:30;;;;;;;6.15;3.20;;;;;;;19.57;64.28;103098.41;5012670;28;20205;-36
2023/12/18 06:33:55;;;;;;;7.40;3.42;;;;;;;19.55;64.21;103104.13;5006880;28;20069;-36
2023/12/18 06:36:21;;;;;;;5.78;3.30;;;;;;;19.54;64.31;103093.34;5008914;28;20034;-35
2023/12/18 06:38:46;;;;;;;5.72;3.20;;;;;;;19.51;64.31;103097.41;5004514;28;20025;-36
2023/12/18 06:41:12;;;;;;;5.97;3.15;;;;;;;19.50;64.27;103094.91;5003997;28;21272;-35
2023/12/18 06:43:39;;;;;;;4.88;3.13;;;;;;;19.48;64.45;103095.13;4985995;28;20234;-36
2023/12/18 06:46:04;;;;;;;5.03;2.83;;;;;;;19.45;64.49;103100.25;4985955;28;20045;-37
2023/12/18 06:48:30;;;;;;;7.93;3.70;;;;;;;19.46;64.46;103099.19;5008296;28;20029;-36
2023/12/18 06:50:55;;;;;;;6.82;3.35;;;;;;;19.43;64.27;103094.97;5009033;28;20056;-35
2023/12/18 06:53:21;;;;;;;5.57;3.03;;;;;;;19.45;64.34;103090.09;5003703;28;20026;-36
2023/12/18 06:55:46;;;;;;;7.05;3.33;;;;;;;19.47;64.58;103100.84;5000232;28;20466;-36
2023/12/18 06:58:11;;;;;;;6.30;3.28;;;;;;;19.47;64.63;103098.97;5000455;28;20053;-36
2023/12/18 07:00:37;;;;;;;6.53;3.38;;;;;;;19.47;64.42;103098.09;5001011;28;20117;-37
2023/12/18 07:03:03;;;;;;;7.45;3.35;;;;;;;19.48;64.39;103091.53;5006392;28;20025;-37
2023/12/18 07:05:29;;;;;;;5.05;3.20;;;;;;;19.49;64.51;103088.56;5003866;28;20109;-37
2023/12/18 07:07:55;;;;;;;7.25;3.47;;;;;;;19.50;64.53;103083.91;5004142;28;20092;-36
2023/12/18 07:10:21;;;;;;;7.40;3.10;;;;;;;19.53;64.37;103088.94;5009152;28;20719;-37
2023/12/18 07:12:46;;;;;;;5.07;3.03;;;;;;;19.52;64.65;103085.34;5010019;28;20037;-35
2023/12/18 07:15:12;;;;;;;6.90;3.55;;;;;;;19.53;64.62;103086.19;4984226;28;20141;-35
2023/12/18 07:17:37;;;;;;;5.93;3.20;;;;;;;19.52;64.57;103088.09;5000127;28;20114;-36
2023/12/18 07:20:03;;;;;;;7.53;3.30;;;;;;;19.51;64.54;103086.41;4984963;28;20030;-36
2023/12/18 07:22:29;;;;;;;6.07;3.33;;;;;;;19.52;64.47;103095.50;5001332;28;20073;-36
2023/12/18 07:24:54;;;;;;;6.00;3.10;;;;;;;19.49;64.46;103083.06;4999377;28;20069;-37
2023/12/18 07:27:19;;;;;;;5.72;2.92;;;;;;;19.49;64.71;103090.47;5005704;28;20478;-36
2023/12/18 07:29:45;;;;;;;4.72;2.72;;;;;;;19.47;64.64;103087.09;4984976;28;20024;-35
2023/12/18 07:32:10;;;;;;;7.82;3.22;;;;;;;19.46;64.60;103093.69;5004544;28;20033;-37
2023/12/18 07:34:36;;;;;;;6.50;3.60;;;;;;;19.45;64.41;103092.00;4992068;28;21045;-37
2023/12/18 07:37:01;;;;;;;7.57;3.60;;;;;;;19.42;64.68;103078.72;5004689;28;20068;-36
2023/12/18 07:39:27;;;;;;;8.80;3.50;;;;;;;19.40;64.56;103089.97;5000692;28;20033;-36
2023/12/18 07:41:53;;;;;;;4.28;3.17;;;;;;;19.38;64.70;103092.91;5002878;28;20336;-36
2023/12/18 07:44:18;;;;;;;7.15;3.85;;;;;;;19.36;64.58;103092.34;4992297;28;20021;-36
2023/12/18 07:46:43;;;;;;;8.35;3.97;;;;;;;19.34;64.57;103094.47;5003630;28;20069;-36
2023/12/18 07:49:09;;;;;;;6.78;4.20;;;;;;;19.30;64.25;103084.16;5003277;28;20053;-36
2023/12/18 07:51:36;;;;;;;8.55;3.97;;;;;;;19.28;64.53;103084.41;5008747;28;20406;-36
2023/12/18 07:54:02;;;;;;;8.65;3.80;;;;;;;19.26;64.52;103088.44;4999417;28;20048;-38
2023/12/18 07:56:27;;;;;;;8.88;4.50;;;;;;;19.22;64.51;103090.81;5002605;28;20022;-38
2023/12/18 07:58:52;;;;;;;9.43;4.53;;;;;;;19.18;64.17;103090.44;5010896;28;20034;-38
2023/12/18 08:01:18;;;;;;;5.68;3.55;;;;;;;19.15;64.05;103095.56;5005782;28;20030;-38
2023/12/18 08:03:43;;;;;;;8.38;3.97;;;;;;;19.13;64.24;103098.53;5007088;28;20037;-39
2023/12/18 08:06:09;;;;;;;7.72;4.13;;;;;;;19.10;64.45;103107.25;5001524;28;20463;-38
2023/12/18 08:08:34;;;;;;;8.70;4.40;;;;;;;19.07;64.01;103104.97;5009938;28;20029;-39
2023/12/18 08:11:00;;;;;;;7.53;4.05;;;;;;;19.06;64.31;103103.28;5003916;28;20026;-39
2023/12/18 08:13:25;;;;;;;9.02;4.18;;;;;;;19.03;64.32;103098.22;5007421;28;20029;-38
2023/12/18 08:15:51;;;;;;;6.90;3.83;;;;;;;19.01;64.47;103100.38;4986329;28;20029;-39
2023/12/18 08:18:16;;;;;;;9.73;3.92;;;;;;;18.98;64.43;103101.69;5011542;28;20026;-40
2023/12/18 08:20:43;;;;;;;7.47;4.43;;;;;;;18.97;64.00;103091.75;4983022;28;20505;-39
2023/12/18 08:23:08;;;;;;;6.85;3.90;;;;;;;18.94;64.28;103097.69;5007256;28;20548;-39
2023/12/18 08:25:34;;;;;;;10.25;4.50;;;;;;;18.92;63.94;103097.09;5006755;28;20037;-35
2023/12/18 08:27:59;;;;;;;9.90;4.22;;;;;;;18.88;64.21;103093.94;5001326;28;20467;-39
2023/12/18 08:30:24;;;;;;;10.75;4.03;;;;;;;18.87;64.24;103096.91;5000321;28;20038;-38
2023/12/18 08:32:50;;;;;;;9.05;4.13;;;;;;;18.84;64.75;103100.94;5005413;28;20203;-36
2023/12/18 08:35:15;;;;;;;5.30;3.95;;;;;;;18.80;64.59;103091.50;5008913;28;20523;-35
2023/12/18 08:37:41;;;;;;;9.45;4.30;;;;;;;18.80;64.37;103094.25;4983558;28;20130;-35
2023/12/18 08:40:07;;;;;;;7.75;4.38;;;;;;;18.77;64.23;103095.53;5011188;28;20026;-38
2023/12/18 08:42:32;;;;;;;9.15;4.07;;;;;;;18.75;64.58;103094.09;5004260;28;20370;-39
2023/12/18 08:44:58;;;;;;;8.30;4.05;;;;;;;18.73;64.90;103091.53;5005990;28;20298;-39
2023/12/18 08:47:23;;;;;;;6.38;3.58;;;;;;;18.71;64.87;103090.94;5009174;28;20111;-39
2023/12/18 08:49:48;;;;;;;10.45;3.78;;;;;;;18.72;65.24;103083.53;5006987;28;20032;-38
2023/12/18 08:52:14;;;;;;;8.95;4.50;;;;;;;18.71;65.38;103079.09;5011695;28;20029;-38
2023/12/18 08:54:39;;;;;;;9.90;4.68;;;;;;;18.72;65.08;103075.31;5010182;28;20037;-39
2023/12/18 08:57:04;;;;;;;11.20;4.30;;;;;;;18.71;65.29;103059.88;5007892;28;20061;-39
2023/12/18 08:59:30;;;;;;;6.68;3.80;;;;;;;18.70;65.71;103070.03;5007373;28;20026;-39
2023/12/18 09:01:55;;;;;;;8.02;3.80;;;;;;;18.70;65.35;103067.28;4991731;28;20021;-37
2023/12/18 09:04:20;;;;;;;13.30;4.47;;;;;;;18.73;65.33;103068.75;5008108;28;20034;-36
2023/12/18 09:06:46;;;;;;;11.07;4.30;;;;;;;18.72;65.21;103075.31;5001664;28;20021;-36
2023/12/18 09:09:11;;;;;;;12.30;4.43;;;;;;;18.69;65.23;103073.84;5010462;28;20034;-39
2023/12/18 09:11:37;;;;;;;11.63;4.97;;;;;;;18.69;65.09;103078.50;5002575;28;20041;-38
2023/12/18 09:14:05;;;;;;;9.98;4.68;;;;;;;18.69;65.09;103070.28;5011021;28;20060;-39
2023/12/18 09:16:31;;;;;;;11.45;4.50;;;;;;;18.68;65.26;103068.59;4990916;28;20096;-39
2023/12/18 09:18:56;;;;;;;8.98;4.10;;;;;;;18.67;65.19;103064.16;5005165;28;20910;-39
2023/12/18 09:21:22;;;;;;;8.55;4.32;;;;;;;18.65;65.10;103067.16;5001659;28;20041;-38
2023/12/18 09:23:47;;;;;;;6.70;4.10;;;;;;;18.65;64.85;103077.28;4986997;28;20045;-39
2023/12/18 09:26:14;;;;;;;7.38;4.20;;;;;;;18.63;64.71;103069.28;5005131;28;20026;-36
2023/12/18 09:28:39;;;;;;;8.43;4.88;;;;;;;18.62;65.07;103064.84;5004356;28;20037;-36
2023/12/18 09:31:05;;;;;;;9.45;4.25;;;;;;;18.60;65.17;103070.56;5008235;28;20124;-35
2023/12/18 09:33:31;;;;;;;7.22;4.00;;;;;;;18.57;65.25;103060.03;5003883;28;21220;-36
2023/12/18 09:35:57;;;;;;;9.73;4.68;;;;;;;18.57;65.08;103068.25;5002692;28;20271;-36
2023/12/18 09:38:22;;;;;;;12.25;4.43;;;;;;;18.57;65.05;103059.19;5010514;28;20083;-36
2023/12/18 09:40:48;;;;;;;6.70;4.05;;;;;;;18.55;65.09;103056.69;5010154;28;20029;-39
2023/12/18 09:43:20;;;;;;;10.13;4.65;;;;;;;18.54;65.00;103062.38;4984741;28;20072;-43
2023/12/18 09:45:47;;;;;;;11.45;4.53;;;;;;;18.52;65.12;103062.63;4980510;28;20029;-39
2023/12/18 09:48:13;;;;;;;7.68;4.50;;;;;;;18.51;64.97;103063.69;4996490;28;20030;-39
2023/12/18 09:50:38;;;;;;;9.23;4.13;;;;;;;18.51;64.86;103063.69;4999913;28;20030;-38
2023/12/18 09:53:14;;;;;;;9.00;3.88;;;;;;;18.51;65.19;103058.19;5000276;28;20022;-36
2023/12/18 09:55:39;;;;;;;9.77;4.90;;;;;;;18.49;65.16;103052.09;4976695;28;20519;-38
2023/12/18 09:58:06;;;;;;;8.82;4.40;;;;;;;18.48;65.03;103042.19;5005128;28;20036;-39
2023/12/18 10:00:32;;;;;;;8.77;4.07;;;;;;;18.48;65.09;103046.81;4999396;28;20115;-39
2023/12/18 10:02:58;;;;;;;7.47;4.25;;;;;;;18.47;65.33;103039.63;5001638;28;20482;-39
2023/12/18 10:05:24;;;;;;;14.52;3.83;;;;;;;18.48;65.68;103038.56;4985768;28;20029;-38
2023/12/18 10:07:52;;;;;;;9.77;4.28;;;;;;;18.51;66.37;103044.44;5007713;28;20080;-38
2023/12/18 10:10:19;;;;;;;16.52;4.80;;;;;;;18.55;66.04;103033.84;5002915;28;20050;-39
2023/12/18 10:12:48;;;;;;;10.45;4.43;;;;;;;18.58;66.11;103036.16;5014583;28;20041;-36
2023/12/18 10:15:16;;;;;;;13.30;4.55;;;;;;;18.63;66.20;103036.31;5010327;28;20427;-36
2023/12/18 10:17:42;;;;;;;8.23;3.70;;;;;;;18.67;66.51;103022.97;4993061;28;20030;-36
2023/12/18 10:20:09;;;;;;;9.60;3.40;;;;;;;18.74;66.89;103015.50;4990652;28;20396;-39
2023/12/18 10:22:34;;;;;;;7.97;3.72;;;;;;;18.80;67.06;103016.47;5007552;28;20042;-37
2023/12/18 10:25:01;;;;;;;9.88;3.70;;;;;;;18.87;66.95;103017.22;4991619;28;20048;-38
2023/12/18 10:27:29;;;;;;;6.72;3.50;;;;;;;18.97;66.91;103011.22;5003859;28;20692;-37
2023/12/18 10:29:55;;;;;;;6.72;3.50;;;;;;;19.04;66.73;103018.31;4999405;28;20391;-37
2023/12/18 10:32:22;;;;;;;8.60;4.22;;;;;;;19.12;66.65;103014.41;5004660;28;20254;-35
2023/12/18 10:34:49;;;;;;;9.95;4.25;;;;;;;19.21;66.66;103006.66;4982684;28;20037;-35
2023/12/18 10:37:15;;;;;;;7.68;3.65;;;;;;;19.28;66.40;103007.41;4998095;28;20031;-36
2023/12/18 10:39:41;;;;;;;11.10;4.20;;;;;;;19.36;66.38;103004.34;4981022;28;20038;-36
2023/12/18 10:42:31;;;;;;;11.20;3.63;;;;;;;19.43;65.95;102993.22;4986134;28;20018;-36
2023/12/18 10:44:58;;;;;;;5.93;3.28;;;;;;;19.50;65.98;102995.91;5009123;28;20080;-38
2023/12/18 10:47:25;;;;;;;8.00;3.95;;;;;;;19.56;66.08;103000.47;5005674;28;20060;-35
2023/12/18 10:49:52;;;;;;;7.20;3.38;;;;;;;19.62;65.76;102999.50;5004808;28;20034;-36
2023/12/18 10:52:19;;;;;;;7.00;4.00;;;;;;;19.67;65.71;102988.63;5002940;28;20073;-37
2023/12/18 10:54:45;;;;;;;9.07;4.00;;;;;;;19.73;65.71;102989.63;5010882;28;20091;-36
2023/12/18 10:57:11;;;;;;;10.38;4.38;;;;;;;19.76;65.49;102996.56;4993368;28;20324;-36
2023/12/18 10:59:37;;;;;;;9.10;3.97;;;;;;;19.77;65.25;102985.31;5012221;28;20753;-36
2023/12/18 11:02:06;;;;;;;8.63;4.40;;;;;;;19.78;65.32;102975.97;4984765;28;20026;-38
2023/12/18 11:04:33;;;;;;;8.38;4.97;;;;;;;19.78;65.19;102983.38;5004435;28;20040;-37
2023/12/18 11:06:58;;;;;;;8.68;3.70;;;;;;;19.77;65.28;102968.78;4982960;28;20474;-36
2023/12/18 11:09:24;;;;;;;6.78;4.15;;;;;;;19.78;65.15;102967.72;5007604;28;20110;-37
2023/12/18 11:11:49;;;;;;;10.50;4.55;;;;;;;19.80;64.77;102976.56;5007484;28;21030;-35
2023/12/18 11:14:38;;;;;;;7.47;4.25;;;;;;;19.80;64.85;102975.72;4999455;28;20042;-36
2023/12/18 11:17:31;;;;;;;8.52;4.57;;;;;;;19.81;64.74;102974.66;4979635;28;20036;-38